Аэропорт: Псков. Псков

ICAO: ULOO

METAR:
2019-09-21 15:30:00
ULOO 211530Z 24001MPS P5000 BKN028CB OVC034 10/09 Q1006 R19/290050 NOSIG RMK QFE750
METAR:
2019-09-21 13:58:00
TAF ULOO 211358Z 2115/2124 32003MPS 6000 BKN012 BKN025 TEMPO 2115/2124 32005G11MPS 3100 -SHRA BKN011 BKN017CB